createdAt,value
2018-09-20T06:41:34.197Z,73.30
2018-09-20T06:44:02.200Z,75.00
2018-09-20T06:46:29.873Z,75.70
2018-09-20T06:48:57.677Z,76.10
2018-09-20T06:51:25.471Z,75.30
2018-09-20T06:53:53.193Z,75.60
2018-09-20T06:56:20.861Z,75.60
2018-09-20T06:58:48.694Z,75.00
2018-09-20T07:01:16.436Z,75.40
2018-09-20T07:03:44.245Z,75.70
2018-09-20T07:06:12.421Z,75.60
2018-09-20T07:08:40.355Z,75.30
2018-09-20T07:11:08.293Z,76.50
2018-09-20T07:13:36.307Z,75.40
2018-09-20T07:16:04.505Z,75.50
2018-09-20T07:18:32.389Z,75.30
2018-09-20T07:21:00.265Z,74.30
2018-09-20T07:23:28.077Z,74.40
2018-09-20T07:25:55.971Z,73.90
2018-09-20T07:28:23.922Z,74.00
2018-09-20T07:30:51.749Z,74.30
2018-09-20T07:33:19.714Z,73.80
2018-09-20T07:35:47.609Z,73.50
2018-09-20T07:38:16.413Z,73.50
2018-09-20T07:40:44.249Z,73.00
2018-09-20T07:43:12.069Z,73.50
2018-09-20T07:45:39.909Z,74.10
2018-09-20T07:48:07.888Z,73.30
2018-09-20T07:50:35.713Z,72.70
2018-09-20T07:53:03.753Z,72.00
2018-09-20T07:55:32.899Z,72.50
2018-09-20T07:58:00.687Z,73.30
2018-09-20T08:00:28.502Z,72.60
2018-09-20T08:02:56.325Z,71.90
2018-09-20T08:05:24.275Z,72.30
2018-09-20T08:07:52.773Z,72.90
2018-09-20T08:10:21.128Z,70.40
2018-09-20T08:12:49.153Z,70.50
2018-09-20T08:15:17.353Z,71.00
2018-09-20T08:17:45.274Z,69.80
2018-09-20T08:20:13.030Z,68.90
2018-09-20T08:22:40.725Z,68.60
2018-09-20T08:25:08.845Z,68.50
2018-09-20T08:27:36.903Z,68.50
2018-09-20T08:30:05.674Z,68.60
2018-09-20T08:32:33.846Z,68.50
2018-09-20T08:35:01.767Z,68.20
2018-09-20T08:37:29.968Z,68.10
2018-09-20T08:39:58.068Z,67.80
2018-09-20T08:42:26.146Z,67.60
2018-09-20T08:44:54.207Z,67.00
2018-09-20T08:47:22.161Z,66.20
2018-09-20T08:49:49.885Z,65.90
2018-09-20T08:52:17.902Z,65.80
2018-09-20T08:54:45.787Z,65.40
2018-09-20T08:57:13.987Z,64.80
2018-09-20T08:59:41.851Z,64.00
2018-09-20T09:02:09.886Z,62.50
2018-09-20T09:04:38.960Z,62.60
2018-09-20T09:07:07.060Z,62.90
2018-09-20T09:09:35.230Z,62.30
2018-09-20T09:12:03.227Z,61.10
2018-09-20T09:14:31.484Z,61.80
2018-09-20T09:16:59.551Z,61.40
2018-09-20T09:19:27.762Z,61.20
2018-09-20T09:21:56.370Z,61.30
2018-09-20T09:24:24.410Z,62.00
2018-09-20T09:26:53.336Z,62.10
2018-09-20T09:29:21.504Z,60.90
2018-09-20T09:31:49.602Z,60.80
2018-09-20T09:34:17.370Z,61.50
2018-09-20T09:36:45.295Z,62.30
2018-09-20T09:39:13.752Z,61.20
2018-09-20T09:41:42.350Z,59.70
2018-09-20T09:44:10.220Z,59.40
2018-09-20T09:46:38.202Z,59.80
2018-09-20T09:49:06.528Z,59.70
2018-09-20T09:51:34.556Z,59.90
2018-09-20T09:54:02.521Z,59.10
2018-09-20T09:56:30.923Z,59.00
2018-09-20T09:58:59.014Z,58.70
2018-09-20T10:01:27.503Z,58.00
2018-09-20T10:03:55.707Z,57.40
2018-09-20T10:06:27.112Z,57.20
2018-09-20T10:08:54.921Z,57.20
2018-09-20T10:11:23.161Z,56.80
2018-09-20T10:13:51.754Z,56.20
2018-09-20T10:16:19.959Z,56.20
2018-09-20T10:18:49.787Z,56.30
2018-09-20T10:21:17.871Z,56.20
2018-09-20T10:23:45.881Z,56.10
2018-09-20T10:26:13.821Z,56.30
2018-09-20T10:28:42.432Z,55.30
2018-09-20T10:31:10.754Z,54.90
2018-09-20T10:33:38.854Z,55.30
2018-09-20T10:36:06.547Z,55.60
2018-09-20T10:38:35.320Z,55.00
2018-09-20T10:41:05.241Z,55.10
2018-09-20T10:43:33.689Z,54.80
2018-09-20T10:46:01.650Z,54.50
2018-09-20T10:48:30.256Z,54.20
2018-09-20T10:50:58.524Z,54.20
2018-09-20T10:53:27.376Z,54.50
2018-09-20T10:55:55.331Z,54.10
2018-09-20T10:58:23.561Z,53.40
2018-09-20T11:00:51.410Z,52.60
2018-09-20T11:03:19.989Z,52.90
2018-09-20T11:05:48.406Z,52.10
2018-09-20T11:08:16.686Z,52.20
2018-09-20T11:10:45.371Z,51.80
2018-09-20T11:13:13.901Z,51.80
2018-09-20T11:15:42.269Z,51.90
2018-09-20T11:18:10.759Z,51.40
2018-09-20T11:20:39.875Z,51.40
2018-09-20T11:23:09.200Z,51.00
2018-09-20T11:25:37.765Z,51.10
2018-09-20T11:28:06.136Z,51.50
2018-09-20T11:30:33.999Z,51.80
2018-09-20T11:33:03.474Z,52.00
2018-09-20T11:35:31.708Z,52.50
2018-09-20T11:38:00.781Z,52.30
2018-09-20T11:40:29.894Z,52.60
2018-09-20T11:45:51.782Z,52.40
2018-09-20T11:48:20.007Z,51.60
2018-09-20T11:50:48.052Z,51.60
2018-09-20T11:53:15.902Z,51.00
2018-09-20T11:55:44.238Z,52.60
2018-09-20T11:58:12.374Z,51.80
2018-09-20T12:00:40.103Z,51.30
2018-09-20T12:03:08.164Z,51.10
2018-09-20T12:05:36.324Z,50.70
2018-09-20T12:08:04.569Z,50.80
2018-09-20T12:10:32.456Z,51.10
2018-09-20T12:13:00.734Z,50.60
2018-09-20T12:15:28.837Z,51.10
2018-09-20T12:17:56.759Z,51.20
2018-09-20T12:20:24.827Z,51.30
2018-09-20T12:22:52.662Z,50.10
2018-09-20T12:25:20.914Z,50.30
2018-09-20T12:27:49.234Z,49.70
2018-09-20T12:30:17.702Z,49.40
2018-09-20T12:32:46.799Z,49.20
2018-09-20T12:35:14.928Z,49.40
2018-09-20T12:37:43.009Z,49.20
2018-09-20T12:40:11.066Z,49.20
2018-09-20T12:42:38.929Z,49.20
2018-09-20T12:45:13.247Z,48.70
2018-09-20T12:47:41.271Z,49.00
2018-09-20T12:50:09.305Z,49.30
2018-09-20T12:52:37.258Z,49.40
2018-09-20T12:55:05.432Z,49.10
2018-09-20T12:57:33.719Z,48.20
2018-09-20T13:00:01.664Z,48.20
2018-09-20T13:02:29.610Z,46.60
2018-09-20T13:05:03.529Z,47.10
2018-09-20T13:07:32.064Z,46.90
2018-09-20T13:10:00.195Z,47.60
2018-09-20T13:12:28.376Z,47.20
2018-09-20T13:14:56.714Z,46.50
2018-09-20T13:17:24.383Z,46.30
2018-09-20T13:19:52.390Z,46.60
2018-09-20T13:22:20.094Z,46.00
2018-09-20T13:24:47.845Z,46.20
2018-09-20T13:27:15.805Z,46.60
2018-09-20T13:29:43.547Z,46.20
2018-09-20T13:32:11.327Z,45.50
2018-09-20T13:34:39.349Z,45.90
2018-09-20T13:37:07.108Z,45.30
2018-09-20T13:39:34.987Z,44.80
2018-09-20T13:42:02.765Z,45.10
2018-09-20T13:44:30.636Z,45.50
2018-09-20T13:46:58.404Z,46.60
2018-09-20T13:49:26.223Z,46.60
2018-09-20T13:51:54.058Z,46.00
2018-09-20T13:54:21.999Z,46.00
2018-09-20T13:56:49.975Z,45.50
2018-09-20T13:59:17.673Z,46.40
2018-09-20T14:01:45.418Z,45.90
2018-09-20T14:04:13.239Z,45.90
2018-09-20T14:06:42.410Z,46.60
2018-09-20T14:09:13.157Z,46.00
2018-09-20T14:11:41.117Z,46.10
2018-09-20T14:14:10.178Z,45.80
2018-09-20T14:16:38.366Z,45.90
2018-09-20T14:19:06.766Z,45.80
2018-09-20T14:21:35.210Z,45.20
2018-09-20T14:24:03.497Z,45.60
2018-09-20T14:26:31.353Z,46.10
2018-09-20T14:28:59.458Z,46.60
2018-09-20T14:31:27.735Z,45.50
2018-09-20T14:33:55.771Z,45.60
2018-09-20T14:36:24.008Z,46.60
2018-09-20T14:38:57.334Z,45.60
2018-09-20T14:41:27.379Z,46.10
2018-09-20T14:43:55.234Z,46.50
2018-09-20T14:46:23.064Z,45.80
2018-09-20T14:48:50.948Z,45.40
2018-09-20T14:51:18.982Z,45.10
2018-09-20T14:53:47.116Z,45.90
2018-09-20T14:56:15.545Z,45.30
2018-09-20T14:58:43.554Z,45.50
2018-09-20T15:01:11.630Z,45.20
2018-09-20T15:03:39.799Z,45.60
2018-09-20T15:06:07.879Z,45.60
2018-09-20T15:08:35.960Z,45.50
2018-09-20T15:11:04.001Z,44.90
2018-09-20T15:13:32.072Z,45.00
2018-09-20T15:16:00.484Z,45.60
2018-09-20T15:18:28.401Z,45.70
2018-09-20T15:20:56.244Z,45.40
2018-09-20T15:23:24.115Z,45.30
2018-09-20T15:25:52.319Z,45.50
2018-09-20T15:28:21.248Z,45.50
2018-09-20T15:30:49.197Z,45.70
2018-09-20T15:33:17.424Z,45.20
2018-09-20T15:35:46.372Z,45.70
2018-09-20T15:38:14.458Z,45.20
2018-09-20T15:40:42.836Z,45.60
2018-09-20T15:43:11.641Z,45.20
2018-09-20T15:45:39.754Z,44.90
2018-09-20T15:48:07.729Z,44.90
2018-09-20T15:50:35.434Z,45.10
2018-09-20T15:53:03.249Z,44.90
2018-09-20T15:55:31.103Z,44.90
2018-09-20T15:57:59.108Z,45.20
2018-09-20T16:00:26.845Z,46.00
2018-09-20T16:02:54.842Z,45.60
2018-09-20T16:05:22.714Z,45.70
2018-09-20T16:07:51.311Z,45.90
2018-09-20T16:10:19.320Z,46.30
2018-09-20T16:12:47.300Z,46.10
2018-09-20T16:15:15.324Z,46.00
2018-09-20T16:17:43.203Z,46.20
2018-09-20T16:20:13.109Z,46.40
2018-09-20T16:22:40.893Z,46.20
2018-09-20T16:25:08.967Z,46.00
2018-09-20T16:27:37.591Z,46.00
2018-09-20T16:30:28.132Z,46.00
2018-09-20T16:33:03.116Z,46.00
2018-09-20T16:35:43.883Z,46.20
2018-09-20T16:38:23.654Z,46.10
2018-09-20T16:40:55.654Z,45.90
2018-09-20T16:43:23.458Z,46.20
2018-09-20T16:45:51.337Z,46.20
2018-09-20T16:48:19.360Z,46.40
2018-09-20T16:50:47.287Z,46.30
2018-09-20T16:53:16.204Z,46.50
2018-09-20T16:55:44.733Z,46.60
2018-09-20T16:58:12.794Z,46.90
2018-09-20T17:00:41.488Z,47.10
2018-09-20T17:03:10.251Z,47.00
2018-09-20T17:05:39.039Z,47.20
2018-09-20T17:08:06.945Z,47.30
2018-09-20T17:10:37.338Z,47.60
2018-09-20T17:13:05.971Z,47.60
2018-09-20T17:15:36.133Z,47.80
2018-09-20T17:20:42.638Z,48.30
2018-09-20T17:23:13.731Z,48.90
2018-09-20T17:25:42.840Z,49.10
2018-09-20T17:28:13.575Z,49.40
2018-09-20T17:30:48.186Z,49.80
2018-09-20T17:33:18.402Z,50.50
2018-09-20T17:35:47.338Z,51.80
2018-09-20T17:38:15.636Z,52.10
2018-09-20T17:40:45.758Z,52.80
2018-09-20T17:43:20.292Z,53.30
2018-09-20T17:45:49.951Z,53.50
2018-09-20T17:48:18.099Z,53.90
2018-09-20T17:50:46.363Z,54.20
2018-09-20T17:53:14.548Z,54.50
2018-09-20T17:55:49.980Z,55.60
2018-09-20T17:58:24.671Z,56.10
2018-09-20T18:00:52.982Z,56.40
2018-09-20T18:03:23.928Z,57.00
2018-09-20T18:05:55.912Z,57.50
2018-09-20T18:08:24.855Z,57.40
2018-09-20T18:10:55.065Z,57.80
2018-09-20T18:13:24.017Z,58.40
2018-09-20T18:15:58.172Z,57.30
2018-09-20T18:18:26.795Z,57.70
2018-09-20T18:20:55.318Z,58.00
2018-09-20T18:23:26.353Z,58.40
2018-09-20T18:28:39.978Z,58.30
2018-09-20T18:31:30.552Z,58.50
2018-09-20T18:37:00.817Z,58.80
2018-09-20T18:39:32.496Z,58.80
2018-09-20T18:42:02.297Z,58.50
2018-09-20T18:44:33.262Z,58.40
2018-09-20T18:47:09.642Z,56.20
2018-09-20T18:49:39.806Z,58.40
2018-09-20T18:52:09.431Z,58.80
2018-09-20T18:54:44.956Z,58.50
2018-09-20T18:57:12.971Z,59.00
2018-09-20T18:59:43.999Z,59.20
2018-09-20T19:02:23.270Z,59.20
2018-09-20T19:04:51.750Z,59.20
2018-09-20T19:07:20.838Z,59.20
2018-09-20T19:09:50.442Z,60.20
2018-09-20T19:12:24.613Z,60.50
2018-09-20T19:14:54.380Z,60.40
2018-09-20T19:17:24.306Z,60.20
2018-09-20T19:19:53.433Z,60.50
2018-09-20T19:22:21.550Z,61.00
2018-09-20T19:24:50.195Z,62.00
2018-09-20T19:30:10.990Z,63.70
2018-09-20T19:32:52.680Z,64.00
2018-09-20T19:38:34.566Z,64.00
2018-09-20T19:41:05.631Z,63.30
2018-09-20T19:43:34.216Z,63.40
2018-09-20T19:46:02.211Z,64.10
2018-09-20T19:48:31.452Z,63.60
2018-09-20T19:51:00.322Z,63.60
2018-09-20T19:53:29.444Z,64.10
2018-09-20T19:55:58.281Z,64.60
2018-09-20T19:58:28.527Z,64.80
2018-09-20T20:00:57.406Z,65.40
2018-09-20T20:03:26.745Z,65.90
2018-09-20T20:08:35.508Z,66.10
2018-09-20T20:11:04.390Z,66.10
2018-09-20T20:13:32.319Z,66.40
2018-09-20T20:16:00.041Z,65.20
2018-09-20T20:18:28.147Z,66.10
2018-09-20T20:20:55.983Z,65.70
2018-09-20T20:23:24.135Z,66.70
2018-09-20T20:25:51.953Z,66.90
2018-09-20T20:28:19.738Z,67.20
2018-09-20T20:30:47.600Z,66.80
2018-09-20T20:33:15.738Z,67.10
2018-09-20T20:35:43.588Z,67.10
2018-09-20T20:38:11.541Z,66.90
2018-09-20T20:40:39.255Z,67.30
2018-09-20T20:43:07.838Z,67.60
2018-09-20T20:45:35.546Z,67.90
2018-09-20T20:48:03.302Z,67.90
2018-09-20T20:50:30.941Z,68.40
2018-09-20T20:52:58.668Z,68.70
2018-09-20T20:55:26.262Z,68.70
2018-09-20T20:57:54.114Z,67.70
2018-09-20T21:00:22.362Z,67.80
2018-09-20T21:02:50.497Z,67.90
2018-09-20T21:05:18.309Z,69.10
2018-09-20T21:07:48.203Z,68.90
2018-09-20T21:10:15.933Z,69.40
2018-09-20T21:12:43.886Z,69.60
2018-09-20T21:15:11.734Z,69.90
2018-09-20T21:17:39.533Z,70.20
2018-09-20T21:20:07.481Z,70.80
2018-09-20T21:22:35.306Z,70.80
2018-09-20T21:25:03.160Z,71.30
2018-09-20T21:27:30.899Z,71.20
2018-09-20T21:29:58.589Z,71.10
2018-09-20T21:32:26.312Z,70.60
2018-09-20T21:34:54.258Z,70.50
2018-09-20T21:37:21.988Z,71.20
2018-09-20T21:39:49.742Z,70.70
2018-09-20T21:42:17.425Z,71.50
2018-09-20T21:44:46.046Z,71.10
2018-09-20T21:47:14.517Z,71.30
2018-09-20T21:49:42.517Z,70.90
2018-09-20T21:52:10.282Z,70.90
2018-09-20T21:54:38.162Z,71.00
2018-09-20T21:57:06.531Z,70.90
2018-09-20T21:59:34.490Z,70.90
2018-09-20T22:02:03.178Z,71.00
2018-09-20T22:04:31.830Z,71.20
2018-09-20T22:07:00.454Z,71.10
2018-09-20T22:09:28.958Z,71.60
2018-09-20T22:11:56.926Z,71.50
2018-09-20T22:14:24.761Z,71.80
2018-09-20T22:16:52.575Z,72.30
2018-09-20T22:19:20.470Z,72.40
2018-09-20T22:21:51.259Z,72.60
2018-09-20T22:24:19.045Z,73.20
2018-09-20T22:26:51.776Z,73.40
2018-09-20T22:29:21.323Z,73.40
2018-09-20T22:31:49.041Z,73.70
2018-09-20T22:34:17.030Z,73.80
2018-09-20T22:36:44.865Z,73.70
2018-09-20T22:39:12.517Z,73.80
2018-09-20T22:41:40.204Z,74.00
2018-09-20T22:44:08.059Z,73.70
2018-09-20T22:46:35.778Z,74.00
2018-09-20T22:49:03.494Z,74.00
2018-09-20T22:51:31.405Z,74.30
2018-09-20T22:53:59.250Z,74.00
2018-09-20T22:56:26.965Z,74.10
2018-09-20T22:58:54.777Z,74.30
2018-09-20T23:01:22.576Z,74.40
2018-09-20T23:03:50.329Z,74.80
2018-09-20T23:06:18.030Z,75.00
2018-09-20T23:08:46.074Z,75.00
2018-09-20T23:11:13.834Z,75.10
2018-09-20T23:13:41.590Z,75.30
2018-09-20T23:16:09.653Z,75.60
2018-09-20T23:18:37.702Z,75.60
2018-09-20T23:21:05.442Z,76.30
2018-09-20T23:23:33.152Z,75.40
2018-09-20T23:26:00.810Z,75.50
2018-09-20T23:28:28.531Z,75.60
2018-09-20T23:30:56.284Z,76.00
2018-09-20T23:33:24.257Z,76.30
2018-09-20T23:35:52.121Z,76.60
2018-09-20T23:38:19.869Z,76.80
2018-09-20T23:40:47.582Z,77.10
2018-09-20T23:43:15.329Z,77.50
2018-09-20T23:45:43.068Z,77.40
2018-09-20T23:48:10.942Z,77.30
2018-09-20T23:50:38.910Z,77.40
2018-09-20T23:53:06.722Z,77.30
2018-09-20T23:55:34.378Z,77.20
2018-09-20T23:58:02.399Z,77.50
